Time;durP1;ratioP1;P1;durP2;ratioP2;P2;SDS_P1;SDS_P2;PMS_P1;PMS_P2;Temp;Humidity;BMP_temperature;BMP_pressure;BME280_temperature;BME280_humidity;BME280_pressure;Samples;Min_cycle;Max_cycle;Signal;HPM_P1;HPM_P2
2022/01/27 00:05:19;;;;;;;44.03;16.80;;;;;;;;;;5072701;28;20553;-68
2022/01/27 00:07:56;;;;;;;39.42;15.05;;;;;;;;;;5072702;28;20515;-66
2022/01/27 00:12:51;;;;;;;37.35;14.80;;;;;;;;;;5072614;28;20218;-67
2022/01/27 00:15:17;;;;;;;32.63;14.55;;;;;;;;;;5072593;28;20176;-68
2022/01/27 00:17:56;;;;;;;33.78;14.73;;;;;;;;;;5072573;28;20669;-68
2022/01/27 00:20:22;;;;;;;33.85;15.18;;;;;;;;;;5072508;28;20262;-68
2022/01/27 00:22:48;;;;;;;37.83;15.82;;;;;;;;;;5072513;28;20671;-72
2022/01/27 00:25:14;;;;;;;38.93;16.60;;;;;;;;;;5073717;28;20220;-69
2022/01/27 00:27:40;;;;;;;35.85;15.32;;;;;;;;;;5076284;28;20410;-65
2022/01/27 00:30:07;;;;;;;46.88;16.98;;;;;;;;;;5076234;28;20176;-68
2022/01/27 00:32:33;;;;;;;44.63;17.08;;;;;;;;;;5076087;28;20259;-71
2022/01/27 00:35:00;;;;;;;34.10;14.63;;;;;;;;;;5058084;28;20168;-68
2022/01/27 00:37:27;;;;;;;33.75;15.90;;;;;;;;;;5075931;28;20214;-71
2022/01/27 00:39:53;;;;;;;31.00;14.90;;;;;;;;;;5076003;28;20195;-69
2022/01/27 00:42:19;;;;;;;41.45;15.95;;;;;;;;;;5075965;28;20610;-69
2022/01/27 00:44:45;;;;;;;38.95;15.80;;;;;;;;;;5076056;28;20186;-64
2022/01/27 00:47:11;;;;;;;35.33;15.27;;;;;;;;;;5075792;28;20175;-64
2022/01/27 00:49:38;;;;;;;39.40;14.93;;;;;;;;;;5075744;28;20839;-66
2022/01/27 00:52:07;;;;;;;38.88;15.93;;;;;;;;;;5075727;28;20464;-66
2022/01/27 00:54:33;;;;;;;33.78;15.23;;;;;;;;;;5075734;28;20173;-64
2022/01/27 00:57:12;;;;;;;40.17;15.60;;;;;;;;;;5075547;28;20210;-64
2022/01/27 00:59:58;;;;;;;35.87;16.50;;;;;;;;;;5057675;28;20436;-64
2022/01/27 01:05:03;;;;;;;41.08;16.10;;;;;;;;;;5075541;28;20577;-64
2022/01/27 01:07:34;;;;;;;44.00;15.63;;;;;;;;;;5075531;28;20176;-64
2022/01/27 01:18:02;;;;;;;43.35;17.45;;;;;;;;;;5075235;28;20269;-63
2022/01/27 01:21:01;;;;;;;42.03;15.10;;;;;;;;;;5074831;28;20175;-66
2022/01/27 01:34:27;;;;;;;38.28;15.80;;;;;;;;;;5075062;28;20167;-67
2022/01/27 01:37:01;;;;;;;44.38;16.45;;;;;;;;;;5069940;28;20225;-66
2022/01/27 01:39:29;;;;;;;47.45;16.73;;;;;;;;;;5074909;28;20168;-63
2022/01/27 01:41:56;;;;;;;36.67;14.68;;;;;;;;;;5074811;28;20183;-65
2022/01/27 01:44:22;;;;;;;33.85;15.70;;;;;;;;;;5074700;28;20345;-64
2022/01/27 01:46:48;;;;;;;39.30;14.55;;;;;;;;;;5074709;28;20183;-64
2022/01/27 01:49:15;;;;;;;31.07;15.10;;;;;;;;;;5074753;28;20180;-64
2022/01/27 01:51:43;;;;;;;32.90;13.85;;;;;;;;;;5074576;28;20760;-64
2022/01/27 01:54:09;;;;;;;36.30;14.95;;;;;;;;;;5074612;28;20206;-65
2022/01/27 01:56:36;;;;;;;33.83;14.73;;;;;;;;;;5074405;28;20203;-64
2022/01/27 01:59:02;;;;;;;34.78;16.13;;;;;;;;;;5074558;28;20175;-64
2022/01/27 02:01:28;;;;;;;36.63;14.85;;;;;;;;;;5063624;28;20627;-64
2022/01/27 02:03:54;;;;;;;27.40;13.93;;;;;;;;;;5094655;28;20174;-63
2022/01/27 02:06:32;;;;;;;31.75;14.55;;;;;;;;;;5094643;28;20166;-63
2022/01/27 02:19:41;;;;;;;33.65;13.95;;;;;;;;;;5094523;28;20202;-66
2022/01/27 02:22:07;;;;;;;34.13;15.80;;;;;;;;;;5093013;28;20175;-63
2022/01/27 02:24:34;;;;;;;36.50;15.32;;;;;;;;;;5094392;28;20447;-63
2022/01/27 02:27:01;;;;;;;30.38;14.07;;;;;;;;;;5094176;28;20528;-63
2022/01/27 02:29:27;;;;;;;34.63;14.30;;;;;;;;;;5094217;28;20247;-64
2022/01/27 02:31:54;;;;;;;36.42;14.98;;;;;;;;;;5094139;28;20629;-67
2022/01/27 02:34:20;;;;;;;33.83;14.27;;;;;;;;;;5094054;28;20182;-66
2022/01/27 02:36:46;;;;;;;36.20;17.42;;;;;;;;;;5092823;28;20267;-68
2022/01/27 02:39:13;;;;;;;32.30;15.30;;;;;;;;;;5093572;28;20570;-70
2022/01/27 02:41:46;;;;;;;35.38;15.93;;;;;;;;;;5092662;28;20408;-65
2022/01/27 02:44:21;;;;;;;31.48;13.98;;;;;;;;;;5093915;28;20176;-67
2022/01/27 02:46:50;;;;;;;34.75;15.40;;;;;;;;;;5093981;28;20166;-65
2022/01/27 02:49:16;;;;;;;31.77;14.82;;;;;;;;;;5093791;28;20176;-67
2022/01/27 02:51:42;;;;;;;32.20;15.10;;;;;;;;;;5093921;28;20179;-64
2022/01/27 02:54:08;;;;;;;31.60;14.97;;;;;;;;;;5093934;28;20415;-67
2022/01/27 02:56:34;;;;;;;32.17;14.30;;;;;;;;;;5093625;28;20522;-69
2022/01/27 02:59:00;;;;;;;26.58;13.40;;;;;;;;;;5093668;28;20506;-71
2022/01/27 03:01:26;;;;;;;35.95;15.35;;;;;;;;;;5092219;28;20218;-70
2022/01/27 03:03:52;;;;;;;32.97;14.80;;;;;;;;;;5093653;28;20178;-68
2022/01/27 03:06:18;;;;;;;31.10;14.55;;;;;;;;;;5093651;28;20408;-67
2022/01/27 03:08:44;;;;;;;29.43;13.70;;;;;;;;;;5093391;28;20576;-68
2022/01/27 03:11:16;;;;;;;34.20;16.30;;;;;;;;;;5093439;28;20417;-64
2022/01/27 03:13:42;;;;;;;29.90;13.63;;;;;;;;;;5092324;28;20396;-66
2022/01/27 03:16:09;;;;;;;33.42;14.10;;;;;;;;;;5093282;28;20174;-65
2022/01/27 03:18:35;;;;;;;26.30;12.02;;;;;;;;;;5093451;28;20230;-63
2022/01/27 03:21:01;;;;;;;26.98;14.60;;;;;;;;;;5093379;28;20170;-65
2022/01/27 03:23:27;;;;;;;27.73;13.60;;;;;;;;;;5093390;28;20171;-67
2022/01/27 03:25:54;;;;;;;28.55;14.60;;;;;;;;;;5093241;28;20167;-70
2022/01/27 03:28:24;;;;;;;28.55;12.70;;;;;;;;;;5092072;28;20183;-70
2022/01/27 03:30:50;;;;;;;29.40;14.07;;;;;;;;;;5093502;28;20166;-68
2022/01/27 03:33:16;;;;;;;29.83;12.50;;;;;;;;;;5093275;28;20174;-70
2022/01/27 03:35:42;;;;;;;26.47;13.53;;;;;;;;;;5093292;28;20404;-69
2022/01/27 03:38:08;;;;;;;29.30;12.73;;;;;;;;;;5093179;28;20982;-70
2022/01/27 03:40:34;;;;;;;24.43;12.50;;;;;;;;;;5093260;28;20458;-70
2022/01/27 03:43:06;;;;;;;28.00;12.80;;;;;;;;;;5093211;28;20405;-71
2022/01/27 03:45:32;;;;;;;24.15;11.95;;;;;;;;;;5093155;28;20175;-70
2022/01/27 03:47:59;;;;;;;28.75;14.25;;;;;;;;;;5093121;28;20174;-70
2022/01/27 03:50:25;;;;;;;28.55;12.75;;;;;;;;;;5093144;28;20260;-69
2022/01/27 03:52:51;;;;;;;29.70;12.25;;;;;;;;;;5093117;28;20254;-71
2022/01/27 03:55:17;;;;;;;28.60;11.83;;;;;;;;;;5093007;28;20266;-70
2022/01/27 03:57:43;;;;;;;28.20;13.63;;;;;;;;;;5092944;28;20465;-70
2022/01/27 04:00:09;;;;;;;29.97;13.23;;;;;;;;;;5094191;28;20230;-70
2022/01/27 04:02:38;;;;;;;31.08;14.32;;;;;;;;;;5082286;28;20518;-70
2022/01/27 04:05:05;;;;;;;26.83;12.27;;;;;;;;;;5058794;28;20184;-70
2022/01/27 04:07:31;;;;;;;26.10;12.35;;;;;;;;;;5076663;28;20248;-69
2022/01/27 04:09:57;;;;;;;26.97;12.90;;;;;;;;;;5076564;28;20681;-70
2022/01/27 04:12:23;;;;;;;25.57;13.03;;;;;;;;;;5076640;28;20470;-66
2022/01/27 04:14:49;;;;;;;26.80;12.10;;;;;;;;;;5076444;28;20398;-65
2022/01/27 04:17:15;;;;;;;30.83;12.87;;;;;;;;;;5076399;28;20459;-64
2022/01/27 04:19:41;;;;;;;25.65;12.85;;;;;;;;;;5076356;28;20411;-65
2022/01/27 04:22:07;;;;;;;37.97;14.47;;;;;;;;;;5058378;28;20188;-66
2022/01/27 04:24:33;;;;;;;30.58;12.82;;;;;;;;;;5076367;28;20405;-70
2022/01/27 04:27:06;;;;;;;31.60;13.98;;;;;;;;;;5076225;28;20234;-71
2022/01/27 04:29:36;;;;;;;31.15;13.80;;;;;;;;;;5076284;28;20511;-71
2022/01/27 04:32:06;;;;;;;28.70;13.88;;;;;;;;;;5076294;28;20234;-71
2022/01/27 04:34:35;;;;;;;32.03;14.43;;;;;;;;;;5076133;28;20190;-70
2022/01/27 04:37:01;;;;;;;30.70;12.95;;;;;;;;;;5076024;28;20218;-71
2022/01/27 04:39:36;;;;;;;29.70;14.40;;;;;;;;;;5075919;28;20179;-71
2022/01/27 04:42:15;;;;;;;30.50;14.93;;;;;;;;;;5075982;28;20408;-72
2022/01/27 04:44:57;;;;;;;31.48;14.25;;;;;;;;;;5076122;28;20623;-71
2022/01/27 04:47:33;;;;;;;35.92;14.20;;;;;;;;;;5076012;28;20641;-71
2022/01/27 04:49:59;;;;;;;28.58;14.23;;;;;;;;;;5058043;28;20171;-69
2022/01/27 04:52:28;;;;;;;29.02;14.18;;;;;;;;;;5075842;28;20191;-70
2022/01/27 04:55:03;;;;;;;30.90;14.98;;;;;;;;;;5075770;28;20187;-71
2022/01/27 04:57:30;;;;;;;28.00;14.18;;;;;;;;;;5075760;28;20215;-66
2022/01/27 04:59:57;;;;;;;34.75;15.63;;;;;;;;;;5075805;28;20210;-68
2022/01/27 05:02:36;;;;;;;28.65;13.60;;;;;;;;;;5075665;28;20376;-66
2022/01/27 05:05:03;;;;;;;36.83;14.23;;;;;;;;;;5075689;28;20201;-67
2022/01/27 05:07:29;;;;;;;28.67;13.00;;;;;;;;;;5075544;28;20184;-63
2022/01/27 05:10:00;;;;;;;36.75;15.27;;;;;;;;;;5075545;28;20210;-62
2022/01/27 05:12:36;;;;;;;29.27;15.82;;;;;;;;;;5074396;28;20172;-63
2022/01/27 05:15:02;;;;;;;31.67;15.35;;;;;;;;;;5075384;28;20178;-63
2022/01/27 05:17:28;;;;;;;40.03;16.67;;;;;;;;;;5075313;28;20214;-65
2022/01/27 05:19:54;;;;;;;36.50;16.48;;;;;;;;;;5075274;28;20173;-68
2022/01/27 05:22:20;;;;;;;27.95;14.55;;;;;;;;;;5075288;28;20171;-66
2022/01/27 05:24:46;;;;;;;37.07;15.40;;;;;;;;;;5075133;28;20249;-65
2022/01/27 05:27:12;;;;;;;33.97;16.40;;;;;;;;;;5075137;28;20409;-64
2022/01/27 05:29:38;;;;;;;34.00;15.97;;;;;;;;;;5057228;28;20409;-64
2022/01/27 05:32:04;;;;;;;38.45;16.40;;;;;;;;;;5075115;28;20403;-63
2022/01/27 05:34:30;;;;;;;36.85;16.40;;;;;;;;;;5075050;28;20626;-65
2022/01/27 05:36:56;;;;;;;33.27;16.97;;;;;;;;;;5074953;28;20215;-64
2022/01/27 05:39:22;;;;;;;37.30;16.60;;;;;;;;;;5074862;28;20406;-65
2022/01/27 05:41:48;;;;;;;34.00;16.53;;;;;;;;;;5074987;28;20755;-64
2022/01/27 05:44:14;;;;;;;34.73;15.70;;;;;;;;;;5074841;28;20442;-64
2022/01/27 05:46:40;;;;;;;34.78;16.33;;;;;;;;;;5056831;28;20426;-66
2022/01/27 05:49:06;;;;;;;35.03;16.57;;;;;;;;;;5074739;28;20187;-65
2022/01/27 05:51:32;;;;;;;36.93;17.23;;;;;;;;;;5074684;28;20447;-67
2022/01/27 05:53:58;;;;;;;34.92;16.67;;;;;;;;;;5074720;28;20463;-63
2022/01/27 05:56:24;;;;;;;34.60;15.87;;;;;;;;;;5074445;28;20181;-64
2022/01/27 05:58:50;;;;;;;28.90;15.43;;;;;;;;;;5074475;28;20900;-63
2022/01/27 06:01:16;;;;;;;31.77;16.02;;;;;;;;;;5074354;28;20682;-63
2022/01/27 06:03:42;;;;;;;37.90;16.90;;;;;;;;;;5074658;28;20186;-63
2022/01/27 06:06:08;;;;;;;36.72;17.05;;;;;;;;;;5074396;28;20405;-67
2022/01/27 06:08:34;;;;;;;30.05;14.98;;;;;;;;;;5074265;28;20622;-67
2022/01/27 06:11:00;;;;;;;37.60;16.90;;;;;;;;;;5074469;28;20646;-66
2022/01/27 06:13:26;;;;;;;35.72;16.42;;;;;;;;;;5056474;28;20185;-65
2022/01/27 06:15:52;;;;;;;32.05;15.43;;;;;;;;;;5074110;28;20262;-68
2022/01/27 06:18:19;;;;;;;32.83;16.65;;;;;;;;;;5074019;28;20673;-69
2022/01/27 06:20:46;;;;;;;33.00;16.80;;;;;;;;;;5056201;28;20187;-70
2022/01/27 06:23:13;;;;;;;32.42;16.85;;;;;;;;;;5073782;28;20622;-71
2022/01/27 06:25:39;;;;;;;32.53;15.18;;;;;;;;;;5073891;28;20190;-70
2022/01/27 06:28:05;;;;;;;35.13;16.73;;;;;;;;;;5073951;28;20168;-68
2022/01/27 06:30:34;;;;;;;36.72;16.75;;;;;;;;;;5073975;28;20190;-67
2022/01/27 06:33:04;;;;;;;36.20;16.25;;;;;;;;;;5073975;28;20308;-70
2022/01/27 06:35:31;;;;;;;34.83;15.60;;;;;;;;;;5073847;28;20168;-66
2022/01/27 06:37:57;;;;;;;28.23;14.10;;;;;;;;;;5073871;28;20775;-71
2022/01/27 06:40:23;;;;;;;32.50;15.33;;;;;;;;;;5073619;28;20174;-69
2022/01/27 06:42:49;;;;;;;34.67;15.60;;;;;;;;;;5073697;28;20417;-68
2022/01/27 06:45:15;;;;;;;33.08;14.60;;;;;;;;;;5073637;28;20249;-69
2022/01/27 06:47:41;;;;;;;35.88;16.83;;;;;;;;;;5073603;28;20183;-66
2022/01/27 06:50:07;;;;;;;32.67;15.80;;;;;;;;;;5055908;28;20179;-67
2022/01/27 06:52:34;;;;;;;34.20;15.77;;;;;;;;;;5073482;28;20892;-68
2022/01/27 06:55:02;;;;;;;36.67;15.95;;;;;;;;;;5073476;28;20173;-66
2022/01/27 06:57:28;;;;;;;39.60;16.58;;;;;;;;;;5073442;28;20207;-67
2022/01/27 06:59:54;;;;;;;30.98;14.52;;;;;;;;;;5073226;28;20627;-66
2022/01/27 07:02:20;;;;;;;30.23;14.47;;;;;;;;;;5073301;28;20223;-66
2022/01/27 07:04:46;;;;;;;30.65;13.55;;;;;;;;;;5073293;28;20444;-68
2022/01/27 07:07:13;;;;;;;33.55;14.55;;;;;;;;;;5055556;28;20218;-68
2022/01/27 07:09:39;;;;;;;32.72;14.70;;;;;;;;;;5073303;28;20199;-66
2022/01/27 07:12:05;;;;;;;35.53;15.43;;;;;;;;;;5073176;28;20176;-66
2022/01/27 07:14:33;;;;;;;35.15;15.80;;;;;;;;;;5073214;28;20199;-71
2022/01/27 07:16:59;;;;;;;38.28;15.43;;;;;;;;;;5073138;28;20226;-71
2022/01/27 07:19:25;;;;;;;26.80;13.73;;;;;;;;;;5073408;28;20497;-69
2022/01/27 07:21:51;;;;;;;28.30;14.07;;;;;;;;;;5073134;28;20175;-68
2022/01/27 07:24:17;;;;;;;27.88;12.48;;;;;;;;;;5073115;28;20402;-70
2022/01/27 07:26:43;;;;;;;28.87;13.93;;;;;;;;;;5072921;28;20168;-67
2022/01/27 07:29:09;;;;;;;32.95;13.63;;;;;;;;;;5073057;28;20408;-69
2022/01/27 07:31:35;;;;;;;28.53;13.47;;;;;;;;;;5073112;28;20521;-68
2022/01/27 07:34:01;;;;;;;29.63;12.40;;;;;;;;;;5072695;28;20409;-70
2022/01/27 07:36:28;;;;;;;27.67;12.88;;;;;;;;;;5072526;28;20412;-69
2022/01/27 07:38:54;;;;;;;25.30;12.90;;;;;;;;;;5073000;28;20177;-71
2022/01/27 07:41:20;;;;;;;35.00;14.15;;;;;;;;;;5073100;28;20243;-66
2022/01/27 07:43:47;;;;;;;35.15;14.27;;;;;;;;;;5073044;28;20277;-71
2022/01/27 07:46:13;;;;;;;33.10;13.48;;;;;;;;;;5072982;28;20248;-65
2022/01/27 07:48:39;;;;;;;30.40;12.95;;;;;;;;;;5072974;28;20221;-68
2022/01/27 07:51:07;;;;;;;33.70;14.98;;;;;;;;;;5072885;28;20172;-70
2022/01/27 07:53:33;;;;;;;33.00;14.43;;;;;;;;;;5072825;28;20654;-69
2022/01/27 07:56:01;;;;;;;34.22;15.10;;;;;;;;;;5072827;28;20183;-67
2022/01/27 07:58:27;;;;;;;38.42;15.10;;;;;;;;;;5072570;28;20610;-64
2022/01/27 08:00:53;;;;;;;36.90;13.75;;;;;;;;;;5072504;28;20675;-62
2022/01/27 08:03:19;;;;;;;30.57;15.80;;;;;;;;;;5072709;28;20309;-62
2022/01/27 08:05:45;;;;;;;33.03;15.13;;;;;;;;;;5072630;28;20495;-64
2022/01/27 08:08:11;;;;;;;37.03;14.95;;;;;;;;;;5072719;28;20456;-66
2022/01/27 08:10:38;;;;;;;35.20;14.85;;;;;;;;;;5072655;28;20175;-67
2022/01/27 08:13:08;;;;;;;30.75;16.25;;;;;;;;;;5072696;28;20184;-70
2022/01/27 08:15:34;;;;;;;34.80;16.02;;;;;;;;;;5072514;28;20505;-65
2022/01/27 08:18:00;;;;;;;24.80;13.68;;;;;;;;;;5072600;28;20302;-66
2022/01/27 08:20:26;;;;;;;32.60;13.88;;;;;;;;;;5072547;28;20178;-66
2022/01/27 08:22:54;;;;;;;27.63;12.25;;;;;;;;;;5072571;28;20175;-64
2022/01/27 08:25:21;;;;;;;29.92;13.00;;;;;;;;;;5054574;28;20233;-70
2022/01/27 08:27:50;;;;;;;32.63;12.70;;;;;;;;;;5072559;28;20163;-71
2022/01/27 08:30:18;;;;;;;27.92;11.55;;;;;;;;;;5072557;28;20251;-68
2022/01/27 08:32:58;;;;;;;34.22;14.88;;;;;;;;;;5072537;28;20175;-69
2022/01/27 08:35:25;;;;;;;32.42;13.90;;;;;;;;;;5072354;28;20687;-70
2022/01/27 08:37:52;;;;;;;38.97;16.25;;;;;;;;;;5072424;28;20211;-64
2022/01/27 08:40:19;;;;;;;33.58;14.80;;;;;;;;;;5072499;28;20164;-66
2022/01/27 08:42:45;;;;;;;32.63;15.98;;;;;;;;;;5054651;28;20212;-71
2022/01/27 08:45:12;;;;;;;34.17;14.75;;;;;;;;;;5072483;28;20548;-69
2022/01/27 08:47:39;;;;;;;34.42;16.45;;;;;;;;;;5075706;28;20239;-66
2022/01/27 08:50:07;;;;;;;34.50;14.63;;;;;;;;;;5076008;28;20190;-66
2022/01/27 08:52:33;;;;;;;37.15;15.13;;;;;;;;;;5075984;28;20168;-70
2022/01/27 08:54:59;;;;;;;32.30;15.15;;;;;;;;;;5075668;28;20172;-68
2022/01/27 08:57:25;;;;;;;35.05;14.43;;;;;;;;;;5075624;28;20207;-64
2022/01/27 08:59:53;;;;;;;34.83;15.00;;;;;;;;;;5075655;28;20180;-66
2022/01/27 09:02:19;;;;;;;35.00;15.30;;;;;;;;;;5075533;28;20230;-65
2022/01/27 09:04:45;;;;;;;34.05;14.82;;;;;;;;;;5075595;28;20168;-68
2022/01/27 09:07:11;;;;;;;33.67;13.70;;;;;;;;;;5075728;28;20207;-67
2022/01/27 09:09:37;;;;;;;31.70;14.32;;;;;;;;;;5075645;28;20476;-72
2022/01/27 09:12:03;;;;;;;38.40;13.87;;;;;;;;;;5075597;28;20625;-68
2022/01/27 09:14:31;;;;;;;31.50;12.85;;;;;;;;;;5057483;28;20471;-71
2022/01/27 09:16:57;;;;;;;31.40;12.52;;;;;;;;;;5075400;28;20214;-71
2022/01/27 09:19:25;;;;;;;30.40;12.35;;;;;;;;;;5075383;28;20199;-68
2022/01/27 09:21:53;;;;;;;29.33;13.82;;;;;;;;;;5075320;28;20167;-71
2022/01/27 09:24:26;;;;;;;32.97;13.50;;;;;;;;;;5075259;28;20163;-73
2022/01/27 09:26:58;;;;;;;25.85;12.45;;;;;;;;;;5075287;28;20155;-69
2022/01/27 09:29:24;;;;;;;27.98;12.82;;;;;;;;;;5075152;28;20253;-71
2022/01/27 09:31:50;;;;;;;38.63;14.05;;;;;;;;;;5075236;28;20167;-70
2022/01/27 09:34:17;;;;;;;25.45;11.65;;;;;;;;;;5075154;28;20266;-68
2022/01/27 09:36:43;;;;;;;28.90;12.50;;;;;;;;;;5075094;28;20192;-68
2022/01/27 09:39:10;;;;;;;22.60;11.05;;;;;;;;;;5074969;28;20502;-70
2022/01/27 09:41:37;;;;;;;31.60;13.13;;;;;;;;;;5075013;28;20696;-70
2022/01/27 09:44:04;;;;;;;25.98;10.82;;;;;;;;;;5056946;28;20324;-72
2022/01/27 09:46:31;;;;;;;25.92;11.10;;;;;;;;;;5074905;28;20177;-70
2022/01/27 09:48:58;;;;;;;25.15;11.35;;;;;;;;;;5074865;28;20175;-66
2022/01/27 09:51:38;;;;;;;22.48;10.77;;;;;;;;;;5074825;28;20203;-69
2022/01/27 09:54:04;;;;;;;23.27;11.47;;;;;;;;;;5074845;28;20169;-66
2022/01/27 09:56:30;;;;;;;24.23;10.88;;;;;;;;;;5074546;28;20892;-69
2022/01/27 09:58:56;;;;;;;25.50;10.93;;;;;;;;;;5073888;28;20183;-67
2022/01/27 10:01:22;;;;;;;24.53;10.83;;;;;;;;;;5061890;28;20459;-68
2022/01/27 10:04:07;;;;;;;26.33;12.50;;;;;;;;;;5094735;28;20422;-74
2022/01/27 10:06:35;;;;;;;18.97;9.30;;;;;;;;;;5094743;28;20401;-72
2022/01/27 10:09:12;;;;;;;20.57;10.43;;;;;;;;;;5094666;28;20398;-73
2022/01/27 10:11:38;;;;;;;24.33;9.38;;;;;;;;;;5094741;28;20964;-73
2022/01/27 10:14:22;;;;;;;20.30;10.57;;;;;;;;;;5094526;28;20186;-72
2022/01/27 10:16:50;;;;;;;19.93;10.10;;;;;;;;;;5094550;28;20973;-73
2022/01/27 10:19:17;;;;;;;17.37;8.70;;;;;;;;;;5094439;28;20417;-72
2022/01/27 10:21:43;;;;;;;20.00;9.23;;;;;;;;;;5094500;28;20472;-73
2022/01/27 10:24:25;;;;;;;18.73;8.97;;;;;;;;;;5094447;28;20422;-74
2022/01/27 10:27:16;;;;;;;18.57;10.00;;;;;;;;;;5094532;28;20416;-73
2022/01/27 10:30:04;;;;;;;21.20;8.90;;;;;;;;;;5085778;28;20444;-73
2022/01/27 10:32:44;;;;;;;18.20;8.60;;;;;;;;;;5094359;28;20399;-74
2022/01/27 10:35:11;;;;;;;16.63;7.87;;;;;;;;;;5094268;28;20462;-76
2022/01/27 10:37:56;;;;;;;17.17;8.37;;;;;;;;;;5094132;28;20496;-72
2022/01/27 10:40:42;;;;;;;17.63;9.47;;;;;;;;;;5094064;28;20409;-70
2022/01/27 10:43:08;;;;;;;16.50;8.30;;;;;;;;;;5094010;28;20840;-72
2022/01/27 10:45:35;;;;;;;18.30;8.23;;;;;;;;;;5092668;28;20497;-69
2022/01/27 10:48:08;;;;;;;15.77;8.50;;;;;;;;;;5093919;28;20432;-69
2022/01/27 10:50:52;;;;;;;20.00;8.07;;;;;;;;;;5094212;28;20758;-68
2022/01/27 10:53:19;;;;;;;14.60;7.80;;;;;;;;;;5093963;28;20403;-73
2022/01/27 10:55:45;;;;;;;18.80;8.40;;;;;;;;;;5093762;28;20437;-73
2022/01/27 10:58:25;;;;;;;14.67;7.10;;;;;;;;;;5092600;28;20472;-74
2022/01/27 11:00:57;;;;;;;14.07;6.70;;;;;;;;;;5092523;28;20492;-71
2022/01/27 11:03:23;;;;;;;16.70;8.60;;;;;;;;;;5093871;28;20566;-73
2022/01/27 11:05:50;;;;;;;16.87;8.63;;;;;;;;;;5093634;28;20440;-74
2022/01/27 11:08:19;;;;;;;13.60;7.70;;;;;;;;;;5093589;28;20404;-74
2022/01/27 11:10:48;;;;;;;15.80;8.13;;;;;;;;;;5092675;28;20405;-73
2022/01/27 11:13:16;;;;;;;18.73;8.50;;;;;;;;;;5093513;28;20469;-71
2022/01/27 11:15:42;;;;;;;13.93;7.93;;;;;;;;;;5093514;28;20420;-72
2022/01/27 11:18:09;;;;;;;16.23;8.20;;;;;;;;;;5092162;28;20472;-71
2022/01/27 11:20:51;;;;;;;16.20;8.37;;;;;;;;;;5093347;28;20948;-73
2022/01/27 11:25:52;;;;;;;17.20;8.20;;;;;;;;;;5093476;28;20462;-72
2022/01/27 11:28:19;;;;;;;18.40;8.80;;;;;;;;;;5093364;28;20430;-73
2022/01/27 11:30:45;;;;;;;15.33;7.67;;;;;;;;;;5093296;28;20432;-69
2022/01/27 11:33:15;;;;;;;16.57;8.40;;;;;;;;;;5093348;28;20455;-65
2022/01/27 11:35:41;;;;;;;16.17;8.30;;;;;;;;;;5093295;28;20405;-73
2022/01/27 11:38:08;;;;;;;14.63;8.57;;;;;;;;;;5093158;28;20525;-73
2022/01/27 11:40:37;;;;;;;16.87;8.10;;;;;;;;;;5093146;28;20407;-73
2022/01/27 11:43:04;;;;;;;16.70;8.93;;;;;;;;;;5093276;28;20909;-71
2022/01/27 11:45:30;;;;;;;14.27;7.80;;;;;;;;;;5093185;28;20960;-72
2022/01/27 11:48:06;;;;;;;19.20;8.40;;;;;;;;;;5093343;28;20755;-72
2022/01/27 11:50:57;;;;;;;19.80;9.07;;;;;;;;;;5093224;28;20444;-67
2022/01/27 11:53:37;;;;;;;14.30;8.90;;;;;;;;;;5093162;28;20402;-72
2022/01/27 11:56:05;;;;;;;15.77;8.17;;;;;;;;;;5093046;28;20413;-72
2022/01/27 11:58:41;;;;;;;15.67;8.43;;;;;;;;;;5092836;28;20578;-73
2022/01/27 12:01:07;;;;;;;16.47;8.50;;;;;;;;;;5090721;28;20400;-71
2022/01/27 12:03:34;;;;;;;17.70;8.90;;;;;;;;;;5072816;28;20410;-73
2022/01/27 12:06:14;;;;;;;18.43;9.20;;;;;;;;;;5072869;28;20405;-73
2022/01/27 12:08:40;;;;;;;22.53;10.80;;;;;;;;;;5072777;28;20773;-73
2022/01/27 12:11:09;;;;;;;21.30;10.47;;;;;;;;;;5072775;28;20470;-74
2022/01/27 12:13:40;;;;;;;17.50;9.30;;;;;;;;;;5072733;28;20414;-73
2022/01/27 12:19:06;;;;;;;19.33;8.97;;;;;;;;;;5072547;28;20512;-71
2022/01/27 12:21:35;;;;;;;19.63;8.43;;;;;;;;;;5074480;28;20415;-68
2022/01/27 12:24:14;;;;;;;18.73;9.47;;;;;;;;;;5076267;28;20420;-72
2022/01/27 12:26:46;;;;;;;18.13;9.60;;;;;;;;;;5076429;28;20455;-73
2022/01/27 12:29:21;;;;;;;19.83;10.00;;;;;;;;;;5058458;28;20465;-71
2022/01/27 12:31:47;;;;;;;16.50;9.13;;;;;;;;;;5076298;28;20477;-73
2022/01/27 12:34:13;;;;;;;18.10;10.07;;;;;;;;;;5076254;28;20398;-72
2022/01/27 12:36:39;;;;;;;15.67;9.80;;;;;;;;;;5076209;28;20409;-74
2022/01/27 12:39:05;;;;;;;16.97;10.07;;;;;;;;;;5075945;28;20889;-72
2022/01/27 12:41:38;;;;;;;18.07;9.10;;;;;;;;;;5076026;28;20394;-65
2022/01/27 12:44:10;;;;;;;16.33;9.13;;;;;;;;;;5076005;28;20883;-67
2022/01/27 12:46:36;;;;;;;18.83;9.57;;;;;;;;;;5075975;28;20904;-72
2022/01/27 12:49:04;;;;;;;17.70;8.53;;;;;;;;;;5075950;28;20484;-70
2022/01/27 12:51:46;;;;;;;17.10;9.20;;;;;;;;;;5075993;28;20445;-67
2022/01/27 12:54:14;;;;;;;19.50;9.30;;;;;;;;;;5075820;28;20423;-68
2022/01/27 12:56:40;;;;;;;19.17;9.90;;;;;;;;;;5075723;28;20408;-71
2022/01/27 12:59:15;;;;;;;16.27;9.57;;;;;;;;;;5075706;28;20439;-72
2022/01/27 13:01:41;;;;;;;24.13;10.40;;;;;;;;;;5068218;28;20486;-72
2022/01/27 13:04:07;;;;;;;19.73;9.57;;;;;;;;;;5095977;28;20459;-71
2022/01/27 13:06:33;;;;;;;18.63;9.87;;;;;;;;;;5095914;28;20976;-68
2022/01/27 13:09:14;;;;;;;19.30;9.47;;;;;;;;;;5096016;28;20409;-67
2022/01/27 13:11:41;;;;;;;14.83;8.53;;;;;;;;;;5094495;28;20408;-64
2022/01/27 13:14:07;;;;;;;16.20;8.70;;;;;;;;;;5095765;28;20956;-64
2022/01/27 13:16:42;;;;;;;17.00;10.27;;;;;;;;;;5095617;28;20485;-64
2022/01/27 13:19:20;;;;;;;17.23;10.33;;;;;;;;;;5095628;28;20399;-67
2022/01/27 13:21:51;;;;;;;20.77;8.97;;;;;;;;;;5095663;28;20721;-64
2022/01/27 13:24:19;;;;;;;16.43;9.07;;;;;;;;;;5095622;28;20393;-64
2022/01/27 13:26:46;;;;;;;20.37;9.10;;;;;;;;;;5095550;28;20508;-65
2022/01/27 13:29:13;;;;;;;18.90;10.20;;;;;;;;;;5095459;28;20523;-63
2022/01/27 13:31:39;;;;;;;21.93;10.30;;;;;;;;;;5095247;28;20453;-66
2022/01/27 13:34:05;;;;;;;19.90;10.03;;;;;;;;;;5094323;28;20401;-65
2022/01/27 13:36:36;;;;;;;16.10;9.37;;;;;;;;;;5095372;28;20449;-65
2022/01/27 13:39:24;;;;;;;17.00;9.40;;;;;;;;;;5095325;28;20421;-66
2022/01/27 13:41:50;;;;;;;17.67;9.80;;;;;;;;;;5095270;28;20389;-64
2022/01/27 13:44:17;;;;;;;14.77;8.30;;;;;;;;;;5095207;28;20425;-64
2022/01/27 13:46:59;;;;;;;16.63;9.43;;;;;;;;;;5095109;28;20396;-64
2022/01/27 13:49:32;;;;;;;15.60;9.00;;;;;;;;;;5095195;28;20400;-66
2022/01/27 13:51:59;;;;;;;17.47;9.43;;;;;;;;;;5095047;28;20404;-65
2022/01/27 13:54:31;;;;;;;16.83;9.47;;;;;;;;;;5094834;28;20753;-67
2022/01/27 13:57:16;;;;;;;17.17;9.00;;;;;;;;;;5093549;28;20807;-64
2022/01/27 13:59:42;;;;;;;13.47;8.47;;;;;;;;;;5094627;28;20495;-65
2022/01/27 14:02:15;;;;;;;17.93;8.77;;;;;;;;;;5083884;28;20472;-64
2022/01/27 14:04:45;;;;;;;16.67;9.50;;;;;;;;;;5074445;28;20405;-65
2022/01/27 14:07:11;;;;;;;17.30;10.20;;;;;;;;;;5074362;28;20966;-64
2022/01/27 14:09:41;;;;;;;18.40;9.33;;;;;;;;;;5074348;28;20410;-63
2022/01/27 14:12:08;;;;;;;17.93;9.37;;;;;;;;;;5074255;28;20404;-65
2022/01/27 14:15:00;;;;;;;18.47;9.87;;;;;;;;;;5074199;28;20400;-64
2022/01/27 14:17:28;;;;;;;16.60;8.80;;;;;;;;;;5069676;28;20491;-63
2022/01/27 14:19:55;;;;;;;16.20;8.23;;;;;;;;;;5074007;28;20421;-66
2022/01/27 14:22:25;;;;;;;13.37;7.63;;;;;;;;;;5056067;28;20414;-64
2022/01/27 14:25:07;;;;;;;15.70;8.30;;;;;;;;;;5074005;28;20492;-63
2022/01/27 14:27:38;;;;;;;15.63;8.80;;;;;;;;;;5056177;28;20817;-65
2022/01/27 14:30:05;;;;;;;12.30;6.97;;;;;;;;;;5073954;28;20406;-65
2022/01/27 14:32:32;;;;;;;14.73;7.60;;;;;;;;;;5073821;28;20454;-65
2022/01/27 14:34:59;;;;;;;14.30;7.47;;;;;;;;;;5073766;28;20401;-65
2022/01/27 14:37:25;;;;;;;14.47;7.80;;;;;;;;;;5073849;28;20464;-65
2022/01/27 14:39:51;;;;;;;12.00;6.40;;;;;;;;;;5073825;28;20401;-65
2022/01/27 14:42:21;;;;;;;14.30;8.43;;;;;;;;;;5073770;28;20416;-67
2022/01/27 14:44:47;;;;;;;13.00;7.53;;;;;;;;;;5073641;28;20401;-64
2022/01/27 14:47:13;;;;;;;14.87;7.03;;;;;;;;;;5073611;28;20450;-64
2022/01/27 14:49:43;;;;;;;12.87;7.20;;;;;;;;;;5073643;28;20412;-65
2022/01/27 14:52:13;;;;;;;12.30;7.07;;;;;;;;;;5073628;28;20460;-64
2022/01/27 14:54:39;;;;;;;14.03;8.23;;;;;;;;;;5073582;28;20493;-65
2022/01/27 14:57:05;;;;;;;13.70;7.13;;;;;;;;;;5073569;28;20940;-65
2022/01/27 14:59:31;;;;;;;15.93;6.67;;;;;;;;;;5073311;28;20408;-69
2022/01/27 15:01:57;;;;;;;14.70;7.90;;;;;;;;;;5073278;28;20479;-66
2022/01/27 15:04:23;;;;;;;13.40;6.80;;;;;;;;;;5073317;28;20774;-64
2022/01/27 15:06:49;;;;;;;14.50;7.23;;;;;;;;;;5073506;28;20410;-68
2022/01/27 15:09:15;;;;;;;14.60;7.60;;;;;;;;;;5055491;28;20797;-65
2022/01/27 15:11:41;;;;;;;13.70;7.10;;;;;;;;;;5073380;28;20464;-68
2022/01/27 15:19:37;;;;;;;10.17;7.17;;;;;;;;;;5073246;28;20418;-65